sensor_id;sensor_type;location;lat;lon;timestamp;temperature;humidity
72762;SHT30;60886;55.034;73.150;2023-02-08T00:00:45;-15.77;71.56
72762;SHT30;60886;55.034;73.150;2023-02-08T00:03:47;-15.70;71.52
72762;SHT30;60886;55.034;73.150;2023-02-08T00:06:53;-15.64;70.98
72762;SHT30;60886;55.034;73.150;2023-02-08T00:09:56;-15.70;70.79
72762;SHT30;60886;55.034;73.150;2023-02-08T00:12:58;-15.71;70.55
72762;SHT30;60886;55.034;73.150;2023-02-08T00:16:00;-15.70;71.16
72762;SHT30;60886;55.034;73.150;2023-02-08T00:19:01;-15.58;71.08
72762;SHT30;60886;55.034;73.150;2023-02-08T00:22:04;-15.68;70.84
72762;SHT30;60886;55.034;73.150;2023-02-08T00:25:11;-15.68;71.13
72762;SHT30;60886;55.034;73.150;2023-02-08T00:28:15;-15.74;71.52
72762;SHT30;60886;55.034;73.150;2023-02-08T00:31:16;-15.75;71.35
72762;SHT30;60886;55.034;73.150;2023-02-08T00:34:28;-15.85;71.13
72762;SHT30;60886;55.034;73.150;2023-02-08T00:37:33;-15.89;71.11
72762;SHT30;60886;55.034;73.150;2023-02-08T00:40:37;-15.92;71.08
72762;SHT30;60886;55.034;73.150;2023-02-08T00:43:38;-15.93;71.39
72762;SHT30;60886;55.034;73.150;2023-02-08T00:46:40;-15.98;71.44
72762;SHT30;60886;55.034;73.150;2023-02-08T00:49:42;-15.95;71.53
72762;SHT30;60886;55.034;73.150;2023-02-08T00:52:45;-15.95;71.87
72762;SHT30;60886;55.034;73.150;2023-02-08T00:55:54;-15.96;71.58
72762;SHT30;60886;55.034;73.150;2023-02-08T00:59:06;-16.12;71.26
72762;SHT30;60886;55.034;73.150;2023-02-08T01:02:07;-16.10;71.23
72762;SHT30;60886;55.034;73.150;2023-02-08T01:05:09;-16.09;71.34
72762;SHT30;60886;55.034;73.150;2023-02-08T01:08:14;-16.13;71.13
72762;SHT30;60886;55.034;73.150;2023-02-08T01:11:19;-16.20;70.54
72762;SHT30;60886;55.034;73.150;2023-02-08T01:14:27;-16.26;70.46
72762;SHT30;60886;55.034;73.150;2023-02-08T01:17:28;-16.26;70.35
72762;SHT30;60886;55.034;73.150;2023-02-08T01:20:33;-16.25;70.47
72762;SHT30;60886;55.034;73.150;2023-02-08T01:23:48;-16.27;70.36
72762;SHT30;60886;55.034;73.150;2023-02-08T01:26:49;-16.43;70.59
72762;SHT30;60886;55.034;73.150;2023-02-08T01:29:53;-16.44;70.80
72762;SHT30;60886;55.034;73.150;2023-02-08T01:32:57;-16.47;71.13
72762;SHT30;60886;55.034;73.150;2023-02-08T01:36:02;-16.50;71.06
72762;SHT30;60886;55.034;73.150;2023-02-08T01:39:06;-16.58;70.94
72762;SHT30;60886;55.034;73.150;2023-02-08T01:42:12;-16.61;71.07
72762;SHT30;60886;55.034;73.150;2023-02-08T01:48:38;-16.73;70.80
72762;SHT30;60886;55.034;73.150;2023-02-08T01:52:08;-16.88;71.12
72762;SHT30;60886;55.034;73.150;2023-02-08T01:58:15;-17.00;70.84
72762;SHT30;60886;55.034;73.150;2023-02-08T02:01:22;-17.05;71.21
72762;SHT30;60886;55.034;73.150;2023-02-08T02:04:27;-17.14;71.40
72762;SHT30;60886;55.034;73.150;2023-02-08T02:07:30;-17.19;71.57
72762;SHT30;60886;55.034;73.150;2023-02-08T02:10:34;-17.23;71.86
72762;SHT30;60886;55.034;73.150;2023-02-08T02:13:36;-17.23;71.28
72762;SHT30;60886;55.034;73.150;2023-02-08T02:16:38;-17.32;71.50
72762;SHT30;60886;55.034;73.150;2023-02-08T02:30:10;-17.53;72.12
72762;SHT30;60886;55.034;73.150;2023-02-08T02:37:31;-17.60;71.91
72762;SHT30;60886;55.034;73.150;2023-02-08T02:43:54;-17.73;72.12
72762;SHT30;60886;55.034;73.150;2023-02-08T02:47:08;-17.81;72.25
72762;SHT30;60886;55.034;73.150;2023-02-08T02:53:32;-18.00;72.41
72762;SHT30;60886;55.034;73.150;2023-02-08T02:56:52;-17.94;72.41
72762;SHT30;60886;55.034;73.150;2023-02-08T02:59:56;-17.91;72.45
72762;SHT30;60886;55.034;73.150;2023-02-08T03:03:19;-17.91;72.47
72762;SHT30;60886;55.034;73.150;2023-02-08T03:06:52;-17.95;72.55
72762;SHT30;60886;55.034;73.150;2023-02-08T03:17:20;-18.07;72.44
72762;SHT30;60886;55.034;73.150;2023-02-08T03:20:27;-18.18;72.38
72762;SHT30;60886;55.034;73.150;2023-02-08T03:27:00;-18.07;72.32
72762;SHT30;60886;55.034;73.150;2023-02-08T03:30:31;-18.00;71.68
72762;SHT30;60886;55.034;73.150;2023-02-08T03:33:49;-17.94;70.97
72762;SHT30;60886;55.034;73.150;2023-02-08T03:37:05;-18.01;70.44
72762;SHT30;60886;55.034;73.150;2023-02-08T03:40:23;-18.11;70.98
72762;SHT30;60886;55.034;73.150;2023-02-08T03:43:33;-18.11;71.12
72762;SHT30;60886;55.034;73.150;2023-02-08T03:50:15;-18.08;70.38
72762;SHT30;60886;55.034;73.150;2023-02-08T03:53:21;-18.00;70.11
72762;SHT30;60886;55.034;73.150;2023-02-08T03:57:18;-17.94;69.90
72762;SHT30;60886;55.034;73.150;2023-02-08T04:00:05;-18.00;69.77
72762;SHT30;60886;55.034;73.150;2023-02-08T04:03:23;-17.98;70.09
72762;SHT30;60886;55.034;73.150;2023-02-08T04:06:30;-17.94;69.75
72762;SHT30;60886;55.034;73.150;2023-02-08T04:09:31;-17.81;69.57
72762;SHT30;60886;55.034;73.150;2023-02-08T04:12:34;-17.83;69.12
72762;SHT30;60886;55.034;73.150;2023-02-08T04:15:41;-17.76;68.59
72762;SHT30;60886;55.034;73.150;2023-02-08T04:18:45;-17.71;68.50
72762;SHT30;60886;55.034;73.150;2023-02-08T04:21:46;-17.66;69.03
72762;SHT30;60886;55.034;73.150;2023-02-08T04:24:48;-17.63;68.69
72762;SHT30;60886;55.034;73.150;2023-02-08T04:27:49;-17.52;68.88
72762;SHT30;60886;55.034;73.150;2023-02-08T04:30:55;-17.11;68.87
72762;SHT30;60886;55.034;73.150;2023-02-08T04:33:57;-16.91;68.46
72762;SHT30;60886;55.034;73.150;2023-02-08T04:37:00;-16.80;68.33
72762;SHT30;60886;55.034;73.150;2023-02-08T04:40:08;-16.56;67.68
72762;SHT30;60886;55.034;73.150;2023-02-08T04:43:19;-16.44;67.74
72762;SHT30;60886;55.034;73.150;2023-02-08T04:46:26;-16.34;67.45
72762;SHT30;60886;55.034;73.150;2023-02-08T04:49:27;-16.33;67.17
72762;SHT30;60886;55.034;73.150;2023-02-08T04:52:32;-16.22;67.17
72762;SHT30;60886;55.034;73.150;2023-02-08T04:55:34;-16.06;67.13
72762;SHT30;60886;55.034;73.150;2023-02-08T04:58:35;-15.91;66.44
72762;SHT30;60886;55.034;73.150;2023-02-08T05:01:37;-16.01;65.56
72762;SHT30;60886;55.034;73.150;2023-02-08T05:04:38;-16.09;66.25
72762;SHT30;60886;55.034;73.150;2023-02-08T05:07:39;-16.25;65.33
72762;SHT30;60886;55.034;73.150;2023-02-08T05:10:44;-16.20;65.05
72762;SHT30;60886;55.034;73.150;2023-02-08T05:13:45;-16.30;65.08
72762;SHT30;60886;55.034;73.150;2023-02-08T05:16:47;-16.39;65.53
72762;SHT30;60886;55.034;73.150;2023-02-08T05:19:55;-16.29;66.08
72762;SHT30;60886;55.034;73.150;2023-02-08T05:23:02;-16.22;66.13
72762;SHT30;60886;55.034;73.150;2023-02-08T05:26:09;-16.25;66.23
72762;SHT30;60886;55.034;73.150;2023-02-08T05:29:12;-16.13;66.56
72762;SHT30;60886;55.034;73.150;2023-02-08T05:32:19;-15.99;66.59
72762;SHT30;60886;55.034;73.150;2023-02-08T05:35:21;-15.93;65.97
72762;SHT30;60886;55.034;73.150;2023-02-08T05:38:32;-15.99;66.47
72762;SHT30;60886;55.034;73.150;2023-02-08T05:41:33;-15.77;66.08
72762;SHT30;60886;55.034;73.150;2023-02-08T05:44:41;-15.65;65.48
72762;SHT30;60886;55.034;73.150;2023-02-08T05:47:47;-15.61;65.19
72762;SHT30;60886;55.034;73.150;2023-02-08T05:50:58;-15.64;65.30
72762;SHT30;60886;55.034;73.150;2023-02-08T05:54:01;-15.57;65.58
72762;SHT30;60886;55.034;73.150;2023-02-08T05:57:02;-15.61;65.43
72762;SHT30;60886;55.034;73.150;2023-02-08T06:00:10;-15.53;65.24
72762;SHT30;60886;55.034;73.150;2023-02-08T06:03:32;-15.51;64.99
72762;SHT30;60886;55.034;73.150;2023-02-08T06:06:41;-15.67;64.68
72762;SHT30;60886;55.034;73.150;2023-02-08T06:09:47;-15.67;65.46
72762;SHT30;60886;55.034;73.150;2023-02-08T06:12:54;-15.57;64.88
72762;SHT30;60886;55.034;73.150;2023-02-08T06:15:56;-15.72;65.06
72762;SHT30;60886;55.034;73.150;2023-02-08T06:18:58;-15.72;65.59
72762;SHT30;60886;55.034;73.150;2023-02-08T06:21:59;-15.65;65.56
72762;SHT30;60886;55.034;73.150;2023-02-08T06:25:01;-15.57;65.57
72762;SHT30;60886;55.034;73.150;2023-02-08T06:28:02;-15.50;65.01
72762;SHT30;60886;55.034;73.150;2023-02-08T06:31:14;-15.41;64.71
72762;SHT30;60886;55.034;73.150;2023-02-08T06:34:20;-15.28;64.55
72762;SHT30;60886;55.034;73.150;2023-02-08T06:37:23;-15.27;64.39
72762;SHT30;60886;55.034;73.150;2023-02-08T06:40:26;-15.26;64.04
72762;SHT30;60886;55.034;73.150;2023-02-08T06:43:32;-15.26;64.07
72762;SHT30;60886;55.034;73.150;2023-02-08T06:46:45;-15.33;63.80
72762;SHT30;60886;55.034;73.150;2023-02-08T06:49:52;-15.38;64.50
72762;SHT30;60886;55.034;73.150;2023-02-08T06:53:02;-15.33;64.30
72762;SHT30;60886;55.034;73.150;2023-02-08T06:56:14;-15.23;64.07
72762;SHT30;60886;55.034;73.150;2023-02-08T06:59:17;-15.24;64.26
72762;SHT30;60886;55.034;73.150;2023-02-08T07:02:22;-15.13;63.80
72762;SHT30;60886;55.034;73.150;2023-02-08T07:05:23;-15.09;63.77
72762;SHT30;60886;55.034;73.150;2023-02-08T07:08:32;-14.99;63.76
72762;SHT30;60886;55.034;73.150;2023-02-08T07:11:45;-14.92;63.67
72762;SHT30;60886;55.034;73.150;2023-02-08T07:14:49;-14.95;63.76
72762;SHT30;60886;55.034;73.150;2023-02-08T07:17:50;-14.93;63.50
72762;SHT30;60886;55.034;73.150;2023-02-08T07:21:02;-14.89;63.80
72762;SHT30;60886;55.034;73.150;2023-02-08T07:24:06;-14.79;62.99
72762;SHT30;60886;55.034;73.150;2023-02-08T07:27:10;-14.91;63.23
72762;SHT30;60886;55.034;73.150;2023-02-08T07:30:12;-14.96;63.25
72762;SHT30;60886;55.034;73.150;2023-02-08T07:33:13;-14.88;63.24
72762;SHT30;60886;55.034;73.150;2023-02-08T07:36:15;-14.86;63.20
72762;SHT30;60886;55.034;73.150;2023-02-08T07:39:19;-14.96;63.46
72762;SHT30;60886;55.034;73.150;2023-02-08T07:42:20;-15.05;63.45
72762;SHT30;60886;55.034;73.150;2023-02-08T07:45:39;-15.02;63.82
72762;SHT30;60886;55.034;73.150;2023-02-08T07:48:41;-15.03;63.99
72762;SHT30;60886;55.034;73.150;2023-02-08T07:51:42;-15.02;64.12
72762;SHT30;60886;55.034;73.150;2023-02-08T07:54:44;-14.97;64.28
72762;SHT30;60886;55.034;73.150;2023-02-08T07:57:46;-14.83;63.80
72762;SHT30;60886;55.034;73.150;2023-02-08T08:00:50;-14.86;63.21
72762;SHT30;60886;55.034;73.150;2023-02-08T08:03:52;-14.96;63.64
72762;SHT30;60886;55.034;73.150;2023-02-08T08:06:55;-15.13;63.96
72762;SHT30;60886;55.034;73.150;2023-02-08T08:09:56;-15.06;64.16
72762;SHT30;60886;55.034;73.150;2023-02-08T08:12:57;-14.93;63.92
72762;SHT30;60886;55.034;73.150;2023-02-08T08:15:59;-14.95;63.62
72762;SHT30;60886;55.034;73.150;2023-02-08T08:19:04;-14.81;63.48
72762;SHT30;60886;55.034;73.150;2023-02-08T08:22:06;-14.79;63.11
72762;SHT30;60886;55.034;73.150;2023-02-08T08:25:08;-14.72;62.89
72762;SHT30;60886;55.034;73.150;2023-02-08T08:28:10;-14.92;62.70
72762;SHT30;60886;55.034;73.150;2023-02-08T08:31:22;-15.09;63.24
72762;SHT30;60886;55.034;73.150;2023-02-08T08:34:25;-15.10;63.71
72762;SHT30;60886;55.034;73.150;2023-02-08T08:37:29;-15.26;63.90
72762;SHT30;60886;55.034;73.150;2023-02-08T08:40:31;-15.40;64.61
72762;SHT30;60886;55.034;73.150;2023-02-08T08:43:33;-15.37;64.84
72762;SHT30;60886;55.034;73.150;2023-02-08T08:46:34;-15.23;64.79
72762;SHT30;60886;55.034;73.150;2023-02-08T08:49:37;-15.17;64.41
72762;SHT30;60886;55.034;73.150;2023-02-08T08:52:41;-15.05;63.76
72762;SHT30;60886;55.034;73.150;2023-02-08T08:55:43;-15.02;63.92
72762;SHT30;60886;55.034;73.150;2023-02-08T08:58:51;-15.02;63.62
72762;SHT30;60886;55.034;73.150;2023-02-08T09:01:53;-14.96;63.62
72762;SHT30;60886;55.034;73.150;2023-02-08T09:04:54;-15.00;63.45
72762;SHT30;60886;55.034;73.150;2023-02-08T09:07:58;-15.05;63.53
72762;SHT30;60886;55.034;73.150;2023-02-08T09:11:10;-15.13;63.36
72762;SHT30;60886;55.034;73.150;2023-02-08T09:14:25;-15.22;63.60
72762;SHT30;60886;55.034;73.150;2023-02-08T09:17:34;-15.31;64.08
72762;SHT30;60886;55.034;73.150;2023-02-08T09:21:21;-15.23;64.40
72762;SHT30;60886;55.034;73.150;2023-02-08T09:24:55;-15.28;64.62
72762;SHT30;60886;55.034;73.150;2023-02-08T09:27:58;-15.28;64.58
72762;SHT30;60886;55.034;73.150;2023-02-08T09:31:08;-15.26;64.74
72762;SHT30;60886;55.034;73.150;2023-02-08T09:34:21;-15.19;64.25
72762;SHT30;60886;55.034;73.150;2023-02-08T09:37:32;-15.12;64.02
72762;SHT30;60886;55.034;73.150;2023-02-08T09:55:59;-15.26;63.58
72762;SHT30;60886;55.034;73.150;2023-02-08T09:59:17;-15.28;64.06
72762;SHT30;60886;55.034;73.150;2023-02-08T10:05:32;-15.34;64.30
72762;SHT30;60886;55.034;73.150;2023-02-08T10:08:35;-15.33;64.08
72762;SHT30;60886;55.034;73.150;2023-02-08T10:18:38;-15.28;64.01
72762;SHT30;60886;55.034;73.150;2023-02-08T10:22:03;-15.27;63.58
72762;SHT30;60886;55.034;73.150;2023-02-08T10:25:25;-15.38;63.61
72762;SHT30;60886;55.034;73.150;2023-02-08T10:32:29;-15.26;63.84
72762;SHT30;60886;55.034;73.150;2023-02-08T10:35:48;-15.40;63.74
72762;SHT30;60886;55.034;73.150;2023-02-08T10:39:08;-15.34;63.61
72762;SHT30;60886;55.034;73.150;2023-02-08T10:42:27;-15.30;63.56
72762;SHT30;60886;55.034;73.150;2023-02-08T10:45:38;-15.33;63.02
72762;SHT30;60886;55.034;73.150;2023-02-08T10:48:59;-15.40;62.90
72762;SHT30;60886;55.034;73.150;2023-02-08T10:52:03;-15.54;63.23
72762;SHT30;60886;55.034;73.150;2023-02-08T10:55:19;-15.65;63.69
72762;SHT30;60886;55.034;73.150;2023-02-08T10:58:31;-15.75;63.71
72762;SHT30;60886;55.034;73.150;2023-02-08T11:01:58;-15.83;63.95
72762;SHT30;60886;55.034;73.150;2023-02-08T11:08:31;-16.05;64.09
72762;SHT30;60886;55.034;73.150;2023-02-08T11:11:38;-16.08;64.04
72762;SHT30;60886;55.034;73.150;2023-02-08T11:14:52;-16.08;64.96
72762;SHT30;60886;55.034;73.150;2023-02-08T11:18:26;-16.06;65.27
72762;SHT30;60886;55.034;73.150;2023-02-08T11:21:42;-16.13;65.08
72762;SHT30;60886;55.034;73.150;2023-02-08T11:25:29;-16.19;64.93
72762;SHT30;60886;55.034;73.150;2023-02-08T11:28:31;-16.25;65.09
72762;SHT30;60886;55.034;73.150;2023-02-08T11:31:33;-16.29;64.98
72762;SHT30;60886;55.034;73.150;2023-02-08T11:34:40;-16.29;65.46
72762;SHT30;60886;55.034;73.150;2023-02-08T11:37:46;-16.39;65.43
72762;SHT30;60886;55.034;73.150;2023-02-08T11:40:58;-16.48;65.77
72762;SHT30;60886;55.034;73.150;2023-02-08T11:44:03;-16.61;65.98
72762;SHT30;60886;55.034;73.150;2023-02-08T11:47:15;-16.74;66.58
72762;SHT30;60886;55.034;73.150;2023-02-08T11:50:28;-16.73;67.50
72762;SHT30;60886;55.034;73.150;2023-02-08T11:53:36;-16.64;67.98
72762;SHT30;60886;55.034;73.150;2023-02-08T11:57:01;-16.60;68.07
72762;SHT30;60886;55.034;73.150;2023-02-08T12:00:26;-16.68;68.24
72762;SHT30;60886;55.034;73.150;2023-02-08T12:03:38;-16.67;68.47
72762;SHT30;60886;55.034;73.150;2023-02-08T12:23:57;-17.10;69.64
72762;SHT30;60886;55.034;73.150;2023-02-08T12:31:01;-17.11;69.23
72762;SHT30;60886;55.034;73.150;2023-02-08T12:34:21;-17.19;68.92
72762;SHT30;60886;55.034;73.150;2023-02-08T12:37:54;-17.29;68.96
72762;SHT30;60886;55.034;73.150;2023-02-08T12:41:40;-17.39;69.21
72762;SHT30;60886;55.034;73.150;2023-02-08T12:45:00;-17.46;69.59
72762;SHT30;60886;55.034;73.150;2023-02-08T12:48:23;-17.52;69.55
72762;SHT30;60886;55.034;73.150;2023-02-08T12:51:57;-17.67;70.22
72762;SHT30;60886;55.034;73.150;2023-02-08T12:55:30;-17.65;71.24
72762;SHT30;60886;55.034;73.150;2023-02-08T12:58:46;-17.55;72.09
72762;SHT30;60886;55.034;73.150;2023-02-08T13:01:52;-17.45;72.48
72762;SHT30;60886;55.034;73.150;2023-02-08T13:05:00;-17.52;71.67
72762;SHT30;60886;55.034;73.150;2023-02-08T13:08:26;-17.55;71.01
72762;SHT30;60886;55.034;73.150;2023-02-08T13:11:41;-17.55;71.25
72762;SHT30;60886;55.034;73.150;2023-02-08T13:14:49;-17.62;70.18
72762;SHT30;60886;55.034;73.150;2023-02-08T13:17:57;-17.66;69.99
72762;SHT30;60886;55.034;73.150;2023-02-08T13:21:01;-17.83;69.66
72762;SHT30;60886;55.034;73.150;2023-02-08T13:24:25;-17.84;70.35
72762;SHT30;60886;55.034;73.150;2023-02-08T13:27:27;-17.90;70.97
72762;SHT30;60886;55.034;73.150;2023-02-08T13:30:29;-17.93;71.00
72762;SHT30;60886;55.034;73.150;2023-02-08T13:33:44;-17.95;70.74
72762;SHT30;60886;55.034;73.150;2023-02-08T13:36:54;-17.90;71.73
72762;SHT30;60886;55.034;73.150;2023-02-08T13:40:17;-17.90;70.84
72762;SHT30;60886;55.034;73.150;2023-02-08T13:47:42;-18.12;69.67
72762;SHT30;60886;55.034;73.150;2023-02-08T13:50:55;-18.14;69.68
72762;SHT30;60886;55.034;73.150;2023-02-08T13:57:01;-18.11;71.06
72762;SHT30;60886;55.034;73.150;2023-02-08T14:00:22;-18.11;70.05
72762;SHT30;60886;55.034;73.150;2023-02-08T14:03:34;-18.15;69.48
72762;SHT30;60886;55.034;73.150;2023-02-08T14:07:26;-18.15;69.91
72762;SHT30;60886;55.034;73.150;2023-02-08T14:10:40;-18.17;71.01
72762;SHT30;60886;55.034;73.150;2023-02-08T14:14:00;-18.25;69.96
72762;SHT30;60886;55.034;73.150;2023-02-08T14:17:27;-18.24;71.18
72762;SHT30;60886;55.034;73.150;2023-02-08T14:20:37;-18.26;70.81
72762;SHT30;60886;55.034;73.150;2023-02-08T14:23:43;-18.35;70.24
72762;SHT30;60886;55.034;73.150;2023-02-08T14:26:51;-18.32;71.30
72762;SHT30;60886;55.034;73.150;2023-02-08T14:30:25;-18.26;71.68
72762;SHT30;60886;55.034;73.150;2023-02-08T14:33:35;-18.26;70.98
72762;SHT30;60886;55.034;73.150;2023-02-08T14:36:37;-18.24;70.30
72762;SHT30;60886;55.034;73.150;2023-02-08T14:40:11;-18.22;70.82
72762;SHT30;60886;55.034;73.150;2023-02-08T14:49:44;-18.66;67.29
72762;SHT30;60886;55.034;73.150;2023-02-08T14:56:17;-19.54;64.12
72762;SHT30;60886;55.034;73.150;2023-02-08T14:59:24;-19.85;64.72
72762;SHT30;60886;55.034;73.150;2023-02-08T15:02:30;-19.86;67.30
72762;SHT30;60886;55.034;73.150;2023-02-08T15:05:43;-19.90;68.29
72762;SHT30;60886;55.034;73.150;2023-02-08T15:08:51;-20.09;66.42
72762;SHT30;60886;55.034;73.150;2023-02-08T15:18:37;-20.27;66.40
72762;SHT30;60886;55.034;73.150;2023-02-08T15:21:39;-20.28;66.54
72762;SHT30;60886;55.034;73.150;2023-02-08T15:24:57;-20.37;65.59
72762;SHT30;60886;55.034;73.150;2023-02-08T15:28:24;-20.38;65.99
72762;SHT30;60886;55.034;73.150;2023-02-08T15:31:30;-20.31;67.37
72762;SHT30;60886;55.034;73.150;2023-02-08T15:34:32;-20.21;67.85
72762;SHT30;60886;55.034;73.150;2023-02-08T15:37:38;-19.97;69.16
72762;SHT30;60886;55.034;73.150;2023-02-08T15:44:24;-19.38;70.31
72762;SHT30;60886;55.034;73.150;2023-02-08T15:47:41;-19.27;69.50
72762;SHT30;60886;55.034;73.150;2023-02-08T15:50:43;-19.20;69.78
72762;SHT30;60886;55.034;73.150;2023-02-08T15:53:46;-19.20;69.32
72762;SHT30;60886;55.034;73.150;2023-02-08T15:59:51;-19.17;68.82
72762;SHT30;60886;55.034;73.150;2023-02-08T16:03:00;-19.24;67.80
72762;SHT30;60886;55.034;73.150;2023-02-08T16:06:04;-19.32;67.29
72762;SHT30;60886;55.034;73.150;2023-02-08T16:09:16;-19.36;68.36
72762;SHT30;60886;55.034;73.150;2023-02-08T16:12:22;-19.30;68.90
72762;SHT30;60886;55.034;73.150;2023-02-08T16:15:45;-19.31;69.27
72762;SHT30;60886;55.034;73.150;2023-02-08T16:25:33;-19.28;68.21
72762;SHT30;60886;55.034;73.150;2023-02-08T16:28:51;-19.30;67.86
72762;SHT30;60886;55.034;73.150;2023-02-08T16:32:05;-19.42;66.96
72762;SHT30;60886;55.034;73.150;2023-02-08T16:35:36;-19.54;65.92
72762;SHT30;60886;55.034;73.150;2023-02-08T16:38:38;-19.82;64.53
72762;SHT30;60886;55.034;73.150;2023-02-08T16:49:22;-19.79;68.75
72762;SHT30;60886;55.034;73.150;2023-02-08T16:52:29;-19.65;69.40
72762;SHT30;60886;55.034;73.150;2023-02-08T16:55:36;-19.83;65.92
72762;SHT30;60886;55.034;73.150;2023-02-08T16:58:48;-20.10;64.11
72762;SHT30;60886;55.034;73.150;2023-02-08T17:01:49;-20.40;63.93
72762;SHT30;60886;55.034;73.150;2023-02-08T17:05:01;-20.58;65.13
72762;SHT30;60886;55.034;73.150;2023-02-08T17:08:09;-20.68;65.04
72762;SHT30;60886;55.034;73.150;2023-02-08T17:11:11;-20.82;65.02
72762;SHT30;60886;55.034;73.150;2023-02-08T17:14:13;-20.83;64.13
72762;SHT30;60886;55.034;73.150;2023-02-08T17:17:20;-21.06;63.98
72762;SHT30;60886;55.034;73.150;2023-02-08T17:23:31;-21.55;63.57
72762;SHT30;60886;55.034;73.150;2023-02-08T17:26:42;-21.75;63.32
72762;SHT30;60886;55.034;73.150;2023-02-08T17:29:45;-21.92;62.97
72762;SHT30;60886;55.034;73.150;2023-02-08T17:32:57;-22.02;63.50
72762;SHT30;60886;55.034;73.150;2023-02-08T17:36:08;-22.12;63.54
72762;SHT30;60886;55.034;73.150;2023-02-08T17:39:12;-22.21;63.48
72762;SHT30;60886;55.034;73.150;2023-02-08T17:42:15;-22.23;64.04
72762;SHT30;60886;55.034;73.150;2023-02-08T17:45:18;-22.16;63.92
72762;SHT30;60886;55.034;73.150;2023-02-08T17:48:19;-22.13;63.79
72762;SHT30;60886;55.034;73.150;2023-02-08T17:51:24;-22.02;65.19
72762;SHT30;60886;55.034;73.150;2023-02-08T17:54:26;-21.93;65.25
72762;SHT30;60886;55.034;73.150;2023-02-08T17:57:39;-21.74;66.12
72762;SHT30;60886;55.034;73.150;2023-02-08T18:00:46;-21.64;65.93
72762;SHT30;60886;55.034;73.150;2023-02-08T18:03:49;-21.57;65.47
72762;SHT30;60886;55.034;73.150;2023-02-08T18:07:02;-21.50;65.11
72762;SHT30;60886;55.034;73.150;2023-02-08T18:10:04;-21.33;66.04
72762;SHT30;60886;55.034;73.150;2023-02-08T18:13:11;-21.12;68.89
72762;SHT30;60886;55.034;73.150;2023-02-08T18:16:24;-20.98;68.84
72762;SHT30;60886;55.034;73.150;2023-02-08T18:19:29;-21.38;64.42
72762;SHT30;60886;55.034;73.150;2023-02-08T18:22:42;-21.59;63.71
72762;SHT30;60886;55.034;73.150;2023-02-08T18:25:45;-21.85;62.50
72762;SHT30;60886;55.034;73.150;2023-02-08T18:28:52;-22.02;62.92
72762;SHT30;60886;55.034;73.150;2023-02-08T18:31:53;-22.09;64.25
72762;SHT30;60886;55.034;73.150;2023-02-08T18:34:55;-22.03;65.69
72762;SHT30;60886;55.034;73.150;2023-02-08T18:37:57;-21.91;65.85
72762;SHT30;60886;55.034;73.150;2023-02-08T18:41:09;-21.91;65.16
72762;SHT30;60886;55.034;73.150;2023-02-08T18:44:11;-22.17;62.90
72762;SHT30;60886;55.034;73.150;2023-02-08T18:47:13;-22.34;62.33
72762;SHT30;60886;55.034;73.150;2023-02-08T18:50:14;-22.42;62.62
72762;SHT30;60886;55.034;73.150;2023-02-08T18:53:15;-22.42;63.33
72762;SHT30;60886;55.034;73.150;2023-02-08T18:56:25;-22.33;63.84
72762;SHT30;60886;55.034;73.150;2023-02-08T18:59:27;-22.14;64.81
72762;SHT30;60886;55.034;73.150;2023-02-08T19:02:28;-21.88;66.60
72762;SHT30;60886;55.034;73.150;2023-02-08T19:05:36;-21.69;70.43
72762;SHT30;60886;55.034;73.150;2023-02-08T19:08:39;-21.88;65.71
72762;SHT30;60886;55.034;73.150;2023-02-08T19:11:43;-22.13;64.27
72762;SHT30;60886;55.034;73.150;2023-02-08T19:14:48;-22.28;64.84
72762;SHT30;60886;55.034;73.150;2023-02-08T19:17:50;-22.30;64.82
72762;SHT30;60886;55.034;73.150;2023-02-08T19:20:54;-22.42;64.58
72762;SHT30;60886;55.034;73.150;2023-02-08T19:23:57;-22.53;64.71
72762;SHT30;60886;55.034;73.150;2023-02-08T19:27:00;-22.52;64.78
72762;SHT30;60886;55.034;73.150;2023-02-08T19:30:03;-22.61;63.93
72762;SHT30;60886;55.034;73.150;2023-02-08T19:33:06;-22.68;64.36
72762;SHT30;60886;55.034;73.150;2023-02-08T19:36:15;-22.80;63.77
72762;SHT30;60886;55.034;73.150;2023-02-08T19:39:24;-22.88;63.69
72762;SHT30;60886;55.034;73.150;2023-02-08T19:42:26;-22.63;65.35
72762;SHT30;60886;55.034;73.150;2023-02-08T19:45:27;-22.59;65.15
72762;SHT30;60886;55.034;73.150;2023-02-08T19:48:31;-22.76;65.08
72762;SHT30;60886;55.034;73.150;2023-02-08T19:51:34;-22.84;63.96
72762;SHT30;60886;55.034;73.150;2023-02-08T19:54:37;-22.84;64.04
72762;SHT30;60886;55.034;73.150;2023-02-08T19:57:39;-22.88;63.92
72762;SHT30;60886;55.034;73.150;2023-02-08T20:00:41;-22.91;63.98
72762;SHT30;60886;55.034;73.150;2023-02-08T20:03:43;-22.91;64.15
72762;SHT30;60886;55.034;73.150;2023-02-08T20:06:50;-22.85;64.64
72762;SHT30;60886;55.034;73.150;2023-02-08T20:09:57;-22.81;65.36
72762;SHT30;60886;55.034;73.150;2023-02-08T20:12:58;-22.90;63.71
72762;SHT30;60886;55.034;73.150;2023-02-08T20:16:05;-23.16;61.55
72762;SHT30;60886;55.034;73.150;2023-02-08T20:19:17;-23.43;62.06
72762;SHT30;60886;55.034;73.150;2023-02-08T20:22:18;-23.57;63.09
72762;SHT30;60886;55.034;73.150;2023-02-08T20:25:21;-23.53;63.04
72762;SHT30;60886;55.034;73.150;2023-02-08T20:28:31;-23.53;62.12
72762;SHT30;60886;55.034;73.150;2023-02-08T20:31:36;-23.60;62.06
72762;SHT30;60886;55.034;73.150;2023-02-08T20:34:38;-23.53;63.23
72762;SHT30;60886;55.034;73.150;2023-02-08T20:37:40;-23.52;63.12
72762;SHT30;60886;55.034;73.150;2023-02-08T20:40:42;-23.60;62.43
72762;SHT30;60886;55.034;73.150;2023-02-08T20:43:45;-23.53;63.02
72762;SHT30;60886;55.034;73.150;2023-02-08T20:46:58;-23.31;64.29
72762;SHT30;60886;55.034;73.150;2023-02-08T20:50:00;-23.18;64.80
72762;SHT30;60886;55.034;73.150;2023-02-08T20:53:01;-23.15;65.29
72762;SHT30;60886;55.034;73.150;2023-02-08T20:56:04;-22.95;66.22
72762;SHT30;60886;55.034;73.150;2023-02-08T20:59:16;-22.61;67.87
72762;SHT30;60886;55.034;73.150;2023-02-08T21:02:21;-22.50;66.36
72762;SHT30;60886;55.034;73.150;2023-02-08T21:05:23;-22.43;66.07
72762;SHT30;60886;55.034;73.150;2023-02-08T21:08:34;-22.36;65.92
72762;SHT30;60886;55.034;73.150;2023-02-08T21:11:36;-22.33;65.40
72762;SHT30;60886;55.034;73.150;2023-02-08T21:14:38;-22.49;63.75
72762;SHT30;60886;55.034;73.150;2023-02-08T21:17:41;-22.81;60.78
72762;SHT30;60886;55.034;73.150;2023-02-08T21:20:44;-23.07;59.26
72762;SHT30;60886;55.034;73.150;2023-02-08T21:23:51;-23.26;59.22
72762;SHT30;60886;55.034;73.150;2023-02-08T21:26:55;-23.46;59.03
72762;SHT30;60886;55.034;73.150;2023-02-08T21:29:58;-23.69;58.48
72762;SHT30;60886;55.034;73.150;2023-02-08T21:33:04;-23.76;60.32
72762;SHT30;60886;55.034;73.150;2023-02-08T21:36:09;-23.73;61.89